Time;durP1;ratioP1;P1;durP2;ratioP2;P2;SDS_P1;SDS_P2;PMS_P1;PMS_P2;Temp;Humidity;BMP_temperature;BMP_pressure;BME280_temperature;BME280_humidity;BME280_pressure;Samples;Min_cycle;Max_cycle;Signal;HPM_P1;HPM_P2
2023/08/03 00:01:04;;;;;;;7.57;6.22;;;;;;;;;;4408562;32;331819;-85
2023/08/03 00:03:31;;;;;;;8.25;5.50;;;;;;;;;;4409301;32;316538;-87
2023/08/03 00:05:58;;;;;;;9.60;5.55;;;;;;;;;;4411880;32;317087;-86
2023/08/03 00:08:25;;;;;;;7.60;5.95;;;;;;;;;;4421927;32;316782;-86
2023/08/03 00:10:54;;;;;;;7.20;6.20;;;;;;;;;;4419480;32;317067;-83
2023/08/03 00:13:21;;;;;;;10.35;5.95;;;;;;;;;;4426934;32;316549;-83
2023/08/03 00:15:48;;;;;;;11.98;5.93;;;;;;;;;;4418247;32;318295;-83
2023/08/03 00:18:16;;;;;;;8.15;6.50;;;;;;;;;;4429371;32;318104;-83
2023/08/03 00:20:43;;;;;;;6.78;5.90;;;;;;;;;;4419280;32;316750;-82
2023/08/03 00:23:09;;;;;;;6.55;5.95;;;;;;;;;;4429177;32;317271;-83
2023/08/03 00:25:36;;;;;;;11.18;6.40;;;;;;;;;;4418166;32;317453;-82
2023/08/03 00:28:03;;;;;;;9.07;6.20;;;;;;;;;;4427359;32;318209;-84
2023/08/03 00:30:32;;;;;;;7.07;6.05;;;;;;;;;;4415262;32;320609;-85
2023/08/03 00:32:58;;;;;;;7.72;5.93;;;;;;;;;;4430428;32;316401;-84
2023/08/03 00:35:27;;;;;;;8.00;5.62;;;;;;;;;;4430702;32;317373;-82
2023/08/03 00:37:55;;;;;;;6.97;6.28;;;;;;;;;;4419077;32;317230;-82
2023/08/03 00:40:23;;;;;;;10.40;7.22;;;;;;;;;;4426100;32;316737;-83
2023/08/03 00:42:50;;;;;;;6.97;6.28;;;;;;;;;;4425317;32;318328;-83
2023/08/03 00:45:17;;;;;;;8.30;6.93;;;;;;;;;;4428821;32;328089;-83
2023/08/03 00:47:44;;;;;;;10.10;6.43;;;;;;;;;;4418984;32;317793;-83
2023/08/03 00:50:11;;;;;;;8.82;6.32;;;;;;;;;;4428951;32;318505;-83
2023/08/03 00:52:39;;;;;;;8.57;5.43;;;;;;;;;;4419030;32;316594;-83
2023/08/03 00:55:07;;;;;;;5.40;4.90;;;;;;;;;;4418991;32;317299;-82
2023/08/03 00:57:33;;;;;;;12.27;6.07;;;;;;;;;;4402976;32;316565;-82
2023/08/03 01:00:00;;;;;;;7.10;5.37;;;;;;;;;;4412964;32;317769;-82
2023/08/03 01:02:27;;;;;;;5.93;5.28;;;;;;;;;;4413094;32;317826;-81
2023/08/03 01:04:54;;;;;;;6.55;5.47;;;;;;;;;;4408927;32;416755;-80
2023/08/03 01:07:22;;;;;;;6.57;5.80;;;;;;;;;;4426096;32;357678;-82
2023/08/03 01:09:50;;;;;;;6.90;6.20;;;;;;;;;;4418985;32;318177;-82
2023/08/03 01:12:17;;;;;;;7.28;6.37;;;;;;;;;;4413915;32;316603;-81
2023/08/03 01:14:45;;;;;;;6.45;5.78;;;;;;;;;;4402922;32;316746;-81
2023/08/03 01:17:12;;;;;;;10.20;5.30;;;;;;;;;;4410993;32;317654;-84
2023/08/03 01:19:39;;;;;;;7.03;6.32;;;;;;;;;;4401866;32;318342;-83
2023/08/03 01:22:09;;;;;;;8.70;5.82;;;;;;;;;;4412319;32;317695;-82
2023/08/03 01:24:37;;;;;;;6.45;5.85;;;;;;;;;;4403509;32;317285;-82
2023/08/03 01:27:05;;;;;;;9.25;5.55;;;;;;;;;;4411869;32;317441;-83
2023/08/03 01:29:32;;;;;;;7.35;6.10;;;;;;;;;;4401829;32;317046;-83
2023/08/03 01:32:00;;;;;;;8.45;6.60;;;;;;;;;;4426968;32;317555;-83
2023/08/03 01:34:28;;;;;;;8.13;6.12;;;;;;;;;;4428506;32;316714;-83
2023/08/03 01:36:55;;;;;;;6.62;5.47;;;;;;;;;;4418498;32;316601;-84
2023/08/03 01:39:24;;;;;;;6.40;5.70;;;;;;;;;;4427698;32;317214;-84
2023/08/03 01:41:52;;;;;;;7.70;6.15;;;;;;;;;;4407930;32;317945;-83
2023/08/03 01:44:26;;;;;;;7.30;6.05;;;;;;;;;;4426941;32;317365;-84
2023/08/03 01:46:54;;;;;;;10.00;6.12;;;;;;;;;;4418749;32;317194;-83
2023/08/03 01:49:22;;;;;;;7.87;5.62;;;;;;;;;;4427639;32;344362;-82
2023/08/03 01:51:50;;;;;;;11.02;6.57;;;;;;;;;;4417237;32;317088;-82
2023/08/03 01:54:17;;;;;;;14.98;6.57;;;;;;;;;;4424761;32;317581;-83
2023/08/03 01:56:44;;;;;;;8.93;7.25;;;;;;;;;;4402132;32;317534;-83
2023/08/03 01:59:13;;;;;;;7.87;7.07;;;;;;;;;;4412448;32;317322;-84
2023/08/03 02:01:42;;;;;;;8.75;7.35;;;;;;;;;;4406059;32;316610;-84
2023/08/03 02:04:09;;;;;;;9.15;7.00;;;;;;;;;;4419368;32;317267;-83
2023/08/03 02:06:39;;;;;;;8.38;6.97;;;;;;;;;;4403082;32;317537;-84
2023/08/03 02:09:06;;;;;;;13.27;6.70;;;;;;;;;;4414073;32;316779;-83
2023/08/03 02:11:35;;;;;;;7.18;6.47;;;;;;;;;;4415346;32;318278;-84
2023/08/03 02:14:02;;;;;;;8.80;6.68;;;;;;;;;;4427769;32;338693;-83
2023/08/03 02:16:31;;;;;;;8.07;6.62;;;;;;;;;;4425677;32;316588;-84
2023/08/03 02:18:58;;;;;;;7.40;6.15;;;;;;;;;;4428754;32;316735;-84
2023/08/03 02:21:25;;;;;;;6.85;5.80;;;;;;;;;;4422232;32;317380;-84
2023/08/03 02:23:53;;;;;;;8.38;6.75;;;;;;;;;;4420034;32;317456;-83
2023/08/03 02:26:20;;;;;;;9.32;7.18;;;;;;;;;;4430943;32;318185;-84
2023/08/03 02:28:49;;;;;;;7.43;6.45;;;;;;;;;;4416394;32;318109;-82
2023/08/03 02:31:16;;;;;;;7.93;7.12;;;;;;;;;;4418464;32;317094;-83
2023/08/03 02:33:44;;;;;;;13.60;7.12;;;;;;;;;;4405762;32;317243;-83
2023/08/03 02:36:11;;;;;;;8.38;7.45;;;;;;;;;;4416686;32;317650;-83
2023/08/03 02:38:38;;;;;;;8.02;7.22;;;;;;;;;;4405810;32;342550;-84
2023/08/03 02:41:05;;;;;;;8.32;7.53;;;;;;;;;;4419847;32;317151;-84
2023/08/03 02:43:32;;;;;;;8.20;6.82;;;;;;;;;;4403710;32;317615;-84
2023/08/03 02:46:02;;;;;;;9.85;7.45;;;;;;;;;;4413965;32;316467;-84
2023/08/03 02:48:28;;;;;;;11.15;6.90;;;;;;;;;;4413980;32;316973;-83
2023/08/03 02:50:56;;;;;;;16.00;7.20;;;;;;;;;;4400911;32;417698;-84
2023/08/03 02:53:23;;;;;;;8.32;7.50;;;;;;;;;;4413927;32;317706;-83
2023/08/03 02:55:50;;;;;;;7.07;6.37;;;;;;;;;;4407262;32;316547;-84
2023/08/03 02:58:17;;;;;;;12.70;7.25;;;;;;;;;;4428413;32;316417;-83
2023/08/03 03:00:44;;;;;;;7.40;6.60;;;;;;;;;;4419861;32;318235;-83
2023/08/03 03:03:11;;;;;;;9.18;6.70;;;;;;;;;;4430127;32;317182;-83
2023/08/03 03:05:39;;;;;;;8.77;6.22;;;;;;;;;;4420414;32;317381;-83
2023/08/03 03:08:07;;;;;;;8.73;7.12;;;;;;;;;;4430541;32;317030;-84
2023/08/03 03:10:34;;;;;;;7.97;6.50;;;;;;;;;;4416763;32;317127;-83
2023/08/03 03:13:01;;;;;;;10.85;6.85;;;;;;;;;;4425125;32;316797;-83
2023/08/03 03:15:30;;;;;;;12.55;6.78;;;;;;;;;;4418993;32;318062;-83
2023/08/03 03:17:57;;;;;;;6.72;5.95;;;;;;;;;;4422424;32;318430;-84
2023/08/03 03:20:24;;;;;;;13.40;8.30;;;;;;;;;;4418990;32;316477;-84
2023/08/03 03:22:51;;;;;;;12.27;10.95;;;;;;;;;;4430333;32;317482;-84
2023/08/03 03:25:19;;;;;;;20.40;15.05;;;;;;;;;;4429018;32;320012;-83
2023/08/03 03:27:46;;;;;;;24.63;14.40;;;;;;;;;;4411782;32;319291;-83
2023/08/03 03:30:13;;;;;;;13.23;11.00;;;;;;;;;;4415657;32;319709;-83
2023/08/03 03:32:39;;;;;;;10.68;9.57;;;;;;;;;;4397080;32;319185;-84
2023/08/03 03:35:07;;;;;;;12.43;9.00;;;;;;;;;;4407977;32;317760;-84
2023/08/03 03:37:33;;;;;;;13.50;9.80;;;;;;;;;;4395342;32;339464;-83
2023/08/03 03:40:02;;;;;;;10.95;9.80;;;;;;;;;;4405957;32;318137;-83
2023/08/03 03:42:30;;;;;;;10.35;9.20;;;;;;;;;;4394426;32;318490;-83
2023/08/03 03:44:57;;;;;;;9.85;8.10;;;;;;;;;;4408181;32;317268;-83
2023/08/03 03:47:23;;;;;;;15.30;8.57;;;;;;;;;;4393382;32;351151;-82
2023/08/03 03:49:50;;;;;;;12.18;9.00;;;;;;;;;;4404984;32;318159;-82
2023/08/03 03:52:17;;;;;;;10.73;7.97;;;;;;;;;;4405282;32;318529;-84
2023/08/03 03:54:45;;;;;;;12.30;7.93;;;;;;;;;;4394194;32;318347;-82
2023/08/03 03:57:12;;;;;;;13.82;9.02;;;;;;;;;;4396963;32;317539;-81
2023/08/03 03:59:40;;;;;;;11.73;7.93;;;;;;;;;;4387882;32;317740;-82
2023/08/03 04:02:07;;;;;;;10.63;7.85;;;;;;;;;;4398792;32;317476;-81
2023/08/03 04:04:34;;;;;;;11.45;8.02;;;;;;;;;;4405255;32;318184;-85
2023/08/03 04:07:01;;;;;;;11.63;8.05;;;;;;;;;;4426697;32;318141;-81
2023/08/03 04:09:27;;;;;;;12.52;7.95;;;;;;;;;;4419419;32;318490;-81
2023/08/03 04:11:54;;;;;;;9.93;7.37;;;;;;;;;;4416543;32;317580;-82
2023/08/03 04:14:21;;;;;;;12.35;7.93;;;;;;;;;;4403999;32;316621;-84
2023/08/03 04:16:50;;;;;;;13.07;8.35;;;;;;;;;;4411244;32;318150;-83
2023/08/03 04:19:17;;;;;;;9.80;8.23;;;;;;;;;;4412255;32;317660;-86
2023/08/03 04:21:44;;;;;;;16.85;9.32;;;;;;;;;;4400967;32;343468;-85
2023/08/03 04:24:11;;;;;;;10.13;7.87;;;;;;;;;;4413570;32;317738;-83
2023/08/03 04:26:37;;;;;;;14.10;8.00;;;;;;;;;;4401793;32;317639;-86
2023/08/03 04:29:04;;;;;;;10.18;8.60;;;;;;;;;;4412893;32;318023;-84
2023/08/03 04:31:31;;;;;;;9.25;8.15;;;;;;;;;;4402074;32;318255;-84
2023/08/03 04:33:59;;;;;;;12.32;7.55;;;;;;;;;;4418888;32;207253;-83
2023/08/03 04:36:26;;;;;;;15.15;8.85;;;;;;;;;;4413408;32;207759;-86
2023/08/03 04:38:53;;;;;;;10.45;8.10;;;;;;;;;;4412595;32;318253;-83
2023/08/03 04:41:20;;;;;;;9.82;8.13;;;;;;;;;;4412559;32;317645;-84
2023/08/03 04:43:49;;;;;;;9.38;6.95;;;;;;;;;;4398942;32;417681;-84
2023/08/03 04:46:16;;;;;;;18.58;7.95;;;;;;;;;;4412030;32;316773;-85
2023/08/03 04:48:43;;;;;;;11.52;8.57;;;;;;;;;;4402021;32;317645;-83
2023/08/03 04:51:11;;;;;;;13.90;8.20;;;;;;;;;;4411976;32;317499;-85
2023/08/03 04:53:39;;;;;;;11.27;8.10;;;;;;;;;;4401311;32;318749;-85
2023/08/03 04:56:06;;;;;;;15.15;9.02;;;;;;;;;;4428144;32;318521;-84
2023/08/03 04:58:33;;;;;;;11.25;8.93;;;;;;;;;;4417709;32;318273;-84
2023/08/03 05:01:00;;;;;;;15.90;9.57;;;;;;;;;;4427170;32;318094;-84
2023/08/03 05:03:27;;;;;;;12.77;8.73;;;;;;;;;;4414632;32;351389;-84
2023/08/03 05:05:53;;;;;;;14.02;9.10;;;;;;;;;;4413090;32;317714;-85
2023/08/03 05:08:22;;;;;;;17.80;9.05;;;;;;;;;;4413187;32;317618;-84
2023/08/03 05:10:49;;;;;;;15.70;8.60;;;;;;;;;;4404799;32;417555;-84
2023/08/03 05:13:21;;;;;;;17.30;9.40;;;;;;;;;;4428514;32;317396;-83
2023/08/03 05:15:48;;;;;;;16.45;8.52;;;;;;;;;;4405631;32;417605;-85
2023/08/03 05:18:15;;;;;;;12.68;8.32;;;;;;;;;;4429854;32;318362;-86
2023/08/03 05:20:41;;;;;;;9.63;8.50;;;;;;;;;;4422568;32;317997;-88
2023/08/03 05:23:11;;;;;;;14.60;10.18;;;;;;;;;;4431412;32;316605;-87
2023/08/03 05:25:40;;;;;;;11.43;9.15;;;;;;;;;;4422446;32;319571;-84
2023/08/03 05:28:07;;;;;;;13.02;9.43;;;;;;;;;;4435047;32;208058;-84
2023/08/03 05:30:34;;;;;;;12.07;9.35;;;;;;;;;;4409909;32;317991;-84
2023/08/03 05:33:02;;;;;;;15.13;8.88;;;;;;;;;;4426546;32;318742;-83
2023/08/03 05:35:29;;;;;;;14.50;9.20;;;;;;;;;;4418455;32;321082;-85
2023/08/03 05:37:56;;;;;;;12.80;10.18;;;;;;;;;;4428483;32;318319;-84
2023/08/03 05:40:23;;;;;;;9.13;8.23;;;;;;;;;;4418409;32;319235;-83
2023/08/03 05:42:51;;;;;;;13.82;9.30;;;;;;;;;;4428223;32;317285;-83
2023/08/03 05:45:38;;;;;;;16.70;9.05;;;;;;;;;;4428200;32;318372;-85
2023/08/03 05:48:13;;;;;;;10.77;8.75;;;;;;;;;;4416938;32;417476;-83
2023/08/03 05:50:42;;;;;;;17.30;11.12;;;;;;;;;;4419185;32;318278;-83
2023/08/03 05:53:10;;;;;;;11.93;8.55;;;;;;;;;;4428536;32;318894;-82
2023/08/03 05:55:38;;;;;;;10.73;8.85;;;;;;;;;;4418889;32;318273;-84
2023/08/03 05:58:06;;;;;;;12.88;7.97;;;;;;;;;;4420679;32;318389;-87
2023/08/03 06:00:35;;;;;;;9.75;8.00;;;;;;;;;;4409057;32;318288;-84
2023/08/03 06:03:03;;;;;;;10.80;8.63;;;;;;;;;;4426055;32;316636;-83
2023/08/03 06:05:36;;;;;;;10.52;8.02;;;;;;;;;;4403147;32;341214;-82
2023/08/03 06:08:11;;;;;;;14.00;8.23;;;;;;;;;;4414396;32;318648;-83
2023/08/03 06:10:38;;;;;;;10.10;7.95;;;;;;;;;;4404577;32;318302;-83
2023/08/03 06:13:10;;;;;;;8.73;7.80;;;;;;;;;;4411402;32;318096;-84
2023/08/03 06:15:49;;;;;;;17.60;7.45;;;;;;;;;;4403423;32;317313;-85
2023/08/03 06:18:16;;;;;;;9.35;7.68;;;;;;;;;;4418331;32;317550;-83
2023/08/03 06:20:47;;;;;;;10.50;8.50;;;;;;;;;;4413188;32;317408;-82
2023/08/03 06:23:17;;;;;;;9.43;8.38;;;;;;;;;;4420505;32;318172;-84
2023/08/03 06:25:54;;;;;;;12.05;8.02;;;;;;;;;;4417222;32;317470;-84
2023/08/03 06:28:24;;;;;;;10.57;8.55;;;;;;;;;;4403968;32;318462;-84
2023/08/03 06:30:52;;;;;;;12.07;7.62;;;;;;;;;;4413526;32;318692;-83
2023/08/03 06:33:22;;;;;;;12.13;8.95;;;;;;;;;;4424995;32;322791;-83
2023/08/03 06:35:50;;;;;;;12.20;9.43;;;;;;;;;;4402595;32;420510;-83
2023/08/03 06:38:17;;;;;;;8.60;7.85;;;;;;;;;;4420377;32;318567;-82
2023/08/03 06:40:46;;;;;;;12.15;9.15;;;;;;;;;;4403638;32;317122;-83
2023/08/03 06:43:13;;;;;;;9.48;7.57;;;;;;;;;;4414672;32;318099;-82
2023/08/03 06:45:42;;;;;;;9.23;8.32;;;;;;;;;;4406558;32;317102;-84
2023/08/03 06:48:09;;;;;;;11.43;8.88;;;;;;;;;;4419665;32;316678;-82
2023/08/03 06:50:36;;;;;;;8.98;8.02;;;;;;;;;;4417019;32;318058;-83
2023/08/03 06:53:04;;;;;;;12.18;8.23;;;;;;;;;;4418512;32;316857;-84
2023/08/03 06:55:32;;;;;;;15.02;8.65;;;;;;;;;;4402478;32;318126;-84
2023/08/03 06:57:58;;;;;;;12.73;8.40;;;;;;;;;;4413372;32;318333;-82
2023/08/03 07:00:26;;;;;;;8.68;7.87;;;;;;;;;;4404705;32;317510;-83
2023/08/03 07:02:54;;;;;;;9.52;7.57;;;;;;;;;;4416748;32;316433;-83
2023/08/03 07:05:21;;;;;;;10.70;8.00;;;;;;;;;;4409847;32;316743;-83
2023/08/03 07:07:49;;;;;;;9.60;8.63;;;;;;;;;;4413080;32;317892;-81
2023/08/03 07:10:16;;;;;;;8.98;7.90;;;;;;;;;;4422626;32;316361;-82
2023/08/03 07:12:43;;;;;;;9.90;8.70;;;;;;;;;;4411190;32;316567;-84
2023/08/03 07:15:10;;;;;;;12.45;8.68;;;;;;;;;;4412555;32;316698;-84
2023/08/03 07:17:37;;;;;;;10.20;8.47;;;;;;;;;;4402417;32;318581;-84
2023/08/03 07:20:08;;;;;;;9.93;7.53;;;;;;;;;;4413019;32;318553;-83
2023/08/03 07:22:35;;;;;;;12.60;8.20;;;;;;;;;;4402451;32;316719;-85
2023/08/03 07:25:02;;;;;;;10.25;8.70;;;;;;;;;;4411806;32;343447;-87
2023/08/03 07:27:29;;;;;;;9.57;8.30;;;;;;;;;;4402416;32;318336;-86
2023/08/03 07:29:56;;;;;;;12.23;8.00;;;;;;;;;;4414202;32;317261;-84
2023/08/03 07:32:23;;;;;;;10.10;7.95;;;;;;;;;;4393475;32;318205;-84
2023/08/03 07:34:50;;;;;;;10.93;8.13;;;;;;;;;;4418230;32;317870;-84
2023/08/03 07:37:19;;;;;;;14.15;8.32;;;;;;;;;;4412706;32;318283;-85
2023/08/03 07:39:46;;;;;;;15.05;8.68;;;;;;;;;;4401115;32;335874;-85
2023/08/03 07:42:13;;;;;;;15.77;8.23;;;;;;;;;;4413064;32;318364;-86
2023/08/03 07:44:39;;;;;;;9.57;7.82;;;;;;;;;;4404405;32;318471;-86
2023/08/03 07:47:07;;;;;;;12.18;8.88;;;;;;;;;;4413900;32;317407;-85
2023/08/03 07:49:34;;;;;;;14.00;9.23;;;;;;;;;;4416468;32;318512;-84
2023/08/03 07:52:00;;;;;;;8.85;7.95;;;;;;;;;;4428607;32;318940;-85
2023/08/03 07:54:29;;;;;;;10.65;8.80;;;;;;;;;;4413569;32;317142;-86
2023/08/03 07:56:55;;;;;;;9.35;8.43;;;;;;;;;;4413283;32;317546;-85
2023/08/03 07:59:22;;;;;;;13.20;8.68;;;;;;;;;;4402821;32;317541;-85
2023/08/03 08:01:49;;;;;;;9.65;8.00;;;;;;;;;;4411547;32;317504;-85
2023/08/03 08:04:18;;;;;;;12.52;9.43;;;;;;;;;;4412417;32;317313;-85
2023/08/03 08:06:45;;;;;;;12.43;8.40;;;;;;;;;;4408941;32;318158;-85
2023/08/03 08:09:12;;;;;;;9.77;8.40;;;;;;;;;;4428092;32;351692;-85
2023/08/03 08:11:40;;;;;;;12.30;8.40;;;;;;;;;;4405857;32;349130;-85
2023/08/03 08:14:07;;;;;;;9.65;8.00;;;;;;;;;;4413162;32;317753;-84
2023/08/03 08:16:34;;;;;;;9.50;8.50;;;;;;;;;;4402934;32;317113;-85
2023/08/03 08:19:01;;;;;;;10.32;8.98;;;;;;;;;;4411914;32;317745;-85
2023/08/03 08:21:28;;;;;;;9.70;8.70;;;;;;;;;;4402320;32;334397;-85
2023/08/03 08:23:55;;;;;;;14.90;8.30;;;;;;;;;;4413584;32;316672;-85
2023/08/03 08:26:21;;;;;;;12.30;8.40;;;;;;;;;;4402974;32;318298;-86
2023/08/03 08:28:52;;;;;;;8.70;7.80;;;;;;;;;;4412385;32;318438;-86
2023/08/03 08:31:19;;;;;;;9.02;8.13;;;;;;;;;;4411548;32;316698;-86
2023/08/03 08:33:46;;;;;;;10.85;7.03;;;;;;;;;;4403662;32;317370;-85
2023/08/03 08:36:12;;;;;;;10.18;7.85;;;;;;;;;;4412943;32;318617;-86
2023/08/03 08:38:40;;;;;;;11.35;7.70;;;;;;;;;;4408744;32;318311;-86
2023/08/03 08:41:06;;;;;;;8.18;7.15;;;;;;;;;;4428220;32;317571;-86
2023/08/03 08:43:33;;;;;;;9.07;7.57;;;;;;;;;;4416946;32;317356;-86
2023/08/03 08:46:01;;;;;;;15.65;7.70;;;;;;;;;;4425319;32;316674;-86
2023/08/03 08:48:33;;;;;;;10.13;8.23;;;;;;;;;;4415172;32;317923;-85
2023/08/03 08:51:01;;;;;;;9.48;7.22;;;;;;;;;;4409796;32;318426;-85
2023/08/03 08:53:27;;;;;;;9.40;7.22;;;;;;;;;;4400332;32;317317;-85
2023/08/03 08:55:54;;;;;;;12.57;7.57;;;;;;;;;;4414368;32;317389;-86
2023/08/03 08:58:21;;;;;;;10.77;7.03;;;;;;;;;;4417538;32;319825;-85
2023/08/03 09:00:48;;;;;;;8.23;6.85;;;;;;;;;;4399585;32;418842;-85
2023/08/03 09:03:17;;;;;;;7.65;6.95;;;;;;;;;;4410684;32;317464;-86
2023/08/03 09:05:44;;;;;;;9.40;7.75;;;;;;;;;;4408088;32;317230;-85
2023/08/03 09:08:16;;;;;;;10.18;7.07;;;;;;;;;;4417971;32;317462;-85
2023/08/03 09:10:50;;;;;;;10.25;8.02;;;;;;;;;;4402549;32;318435;-85
2023/08/03 09:13:28;;;;;;;9.55;7.45;;;;;;;;;;4411987;32;329180;-85
2023/08/03 09:15:55;;;;;;;9.45;7.50;;;;;;;;;;4400101;32;416625;-85
2023/08/03 09:18:25;;;;;;;10.63;8.02;;;;;;;;;;4404501;32;317730;-86
2023/08/03 09:20:52;;;;;;;10.30;8.15;;;;;;;;;;4414961;32;318322;-86
2023/08/03 09:23:28;;;;;;;8.93;7.15;;;;;;;;;;4415608;32;318284;-85
2023/08/03 09:25:55;;;;;;;9.85;7.35;;;;;;;;;;4400628;32;417745;-85
2023/08/03 09:28:34;;;;;;;9.65;7.75;;;;;;;;;;4406209;32;317324;-86
2023/08/03 09:31:01;;;;;;;8.90;7.12;;;;;;;;;;4416052;32;316372;-83
2023/08/03 09:33:32;;;;;;;11.38;7.12;;;;;;;;;;4406170;32;317317;-85
2023/08/03 09:36:07;;;;;;;17.37;7.82;;;;;;;;;;4415159;32;318475;-85
2023/08/03 09:38:34;;;;;;;8.67;7.77;;;;;;;;;;4404675;32;318782;-85
2023/08/03 09:41:01;;;;;;;10.70;7.30;;;;;;;;;;4418667;32;317356;-86
2023/08/03 09:43:28;;;;;;;9.23;7.80;;;;;;;;;;4405615;32;318616;-85
2023/08/03 09:45:56;;;;;;;8.18;7.07;;;;;;;;;;4412093;32;317507;-85
2023/08/03 09:48:24;;;;;;;9.30;7.80;;;;;;;;;;4403777;32;331980;-85
2023/08/03 09:50:54;;;;;;;10.50;7.45;;;;;;;;;;4415277;32;318125;-85
2023/08/03 09:53:23;;;;;;;13.25;7.37;;;;;;;;;;4426444;32;317741;-84
2023/08/03 09:55:58;;;;;;;10.95;7.82;;;;;;;;;;4406231;32;417683;-84
2023/08/03 09:58:38;;;;;;;7.50;6.72;;;;;;;;;;4405179;32;318594;-85
2023/08/03 10:01:09;;;;;;;11.35;8.00;;;;;;;;;;4415245;32;316732;-85
2023/08/03 10:03:39;;;;;;;8.25;6.95;;;;;;;;;;4404179;32;318610;-84
2023/08/03 10:06:12;;;;;;;14.23;7.75;;;;;;;;;;4417384;32;317934;-85
2023/08/03 10:08:44;;;;;;;13.82;7.00;;;;;;;;;;4411019;32;319261;-82
2023/08/03 10:11:12;;;;;;;9.60;6.87;;;;;;;;;;4413013;32;318266;-83
2023/08/03 10:13:42;;;;;;;6.65;6.05;;;;;;;;;;4407142;32;317617;-85
2023/08/03 10:16:10;;;;;;;7.43;6.47;;;;;;;;;;4404967;32;317471;-85
2023/08/03 10:18:37;;;;;;;10.25;7.47;;;;;;;;;;4409745;32;317290;-85
2023/08/03 10:21:05;;;;;;;6.47;5.72;;;;;;;;;;4427491;32;335300;-85
2023/08/03 10:23:35;;;;;;;18.30;7.35;;;;;;;;;;4405221;32;317077;-85
2023/08/03 10:26:02;;;;;;;9.90;6.60;;;;;;;;;;4414345;32;318258;-85
2023/08/03 10:28:45;;;;;;;10.45;5.55;;;;;;;;;;4404061;32;317292;-85
2023/08/03 10:31:14;;;;;;;8.32;6.12;;;;;;;;;;4412827;32;317682;-85
2023/08/03 10:34:09;;;;;;;8.15;6.57;;;;;;;;;;4404980;32;316456;-85
2023/08/03 10:36:47;;;;;;;6.78;5.90;;;;;;;;;;4404829;32;317156;-84
2023/08/03 10:39:16;;;;;;;8.38;6.03;;;;;;;;;;4428169;32;317341;-85
2023/08/03 10:41:45;;;;;;;7.07;6.45;;;;;;;;;;4418702;32;317576;-85
2023/08/03 10:44:26;;;;;;;11.90;6.47;;;;;;;;;;4429070;32;316715;-84
2023/08/03 10:46:56;;;;;;;13.98;6.20;;;;;;;;;;4413840;32;417232;-86
2023/08/03 10:49:52;;;;;;;7.93;5.70;;;;;;;;;;4418636;32;318202;-86
2023/08/03 10:52:21;;;;;;;6.62;5.50;;;;;;;;;;4420048;32;317614;-85
2023/08/03 10:54:50;;;;;;;6.87;5.68;;;;;;;;;;4408105;32;417748;-86
2023/08/03 10:57:19;;;;;;;9.00;5.78;;;;;;;;;;4412013;32;317250;-85
2023/08/03 10:59:47;;;;;;;7.22;5.85;;;;;;;;;;4404062;32;316816;-86
2023/08/03 11:02:18;;;;;;;6.55;5.62;;;;;;;;;;4413285;32;317074;-86
2023/08/03 11:04:45;;;;;;;10.50;6.35;;;;;;;;;;4417938;32;316921;-86
2023/08/03 11:07:18;;;;;;;7.47;6.37;;;;;;;;;;4423089;32;317424;-86
2023/08/03 11:09:53;;;;;;;6.32;5.72;;;;;;;;;;4421869;32;317231;-84
2023/08/03 11:12:27;;;;;;;6.85;6.10;;;;;;;;;;4416692;32;316723;-86
2023/08/03 11:14:56;;;;;;;7.60;5.55;;;;;;;;;;4358030;32;416612;-83
2023/08/03 11:17:24;;;;;;;10.38;6.65;;;;;;;;;;4386327;32;317046;-84
2023/08/03 11:19:52;;;;;;;8.57;5.57;;;;;;;;;;4410318;32;356170;-84
2023/08/03 11:22:21;;;;;;;8.35;6.72;;;;;;;;;;4411843;32;316577;-83
2023/08/03 11:24:49;;;;;;;9.63;5.72;;;;;;;;;;4398139;32;416472;-84
2023/08/03 11:27:18;;;;;;;8.43;5.97;;;;;;;;;;4400251;32;346890;-83
2023/08/03 11:29:45;;;;;;;8.30;6.40;;;;;;;;;;4386697;32;323005;-84
2023/08/03 11:32:13;;;;;;;7.00;6.30;;;;;;;;;;4398470;32;317646;-85
2023/08/03 11:34:40;;;;;;;7.32;5.68;;;;;;;;;;4388947;32;317161;-84
2023/08/03 11:37:07;;;;;;;6.93;5.43;;;;;;;;;;4406332;32;316443;-84
2023/08/03 11:39:34;;;;;;;6.40;5.57;;;;;;;;;;4401731;32;355768;-84
2023/08/03 11:42:02;;;;;;;6.32;5.40;;;;;;;;;;4404083;32;340420;-84
2023/08/03 11:44:30;;;;;;;6.85;5.12;;;;;;;;;;4388629;32;316672;-84
2023/08/03 11:47:05;;;;;;;6.85;4.85;;;;;;;;;;4405994;32;317157;-83
2023/08/03 11:49:32;;;;;;;5.60;4.72;;;;;;;;;;4403429;32;317483;-82
2023/08/03 11:52:00;;;;;;;7.60;5.55;;;;;;;;;;4403967;32;317239;-82
2023/08/03 11:54:29;;;;;;;6.57;5.30;;;;;;;;;;4371796;32;317205;-82
2023/08/03 11:58:07;;;;;;;8.23;4.72;;;;;;;;;;4405327;32;317298;-82
2023/08/03 11:59:47;;;;;;;9.13;4.75;;;;;;;;;;4388843;32;317106;-83
2023/08/03 12:02:14;;;;;;;12.85;7.00;;;;;;;;;;4381184;32;317394;-83
2023/08/03 12:04:42;;;;;;;6.85;6.05;;;;;;;;;;4389831;32;318071;-82
2023/08/03 12:07:09;;;;;;;9.30;5.43;;;;;;;;;;4404824;32;317633;-82
2023/08/03 12:09:40;;;;;;;6.55;5.57;;;;;;;;;;4402128;32;317255;-83
2023/08/03 12:12:10;;;;;;;6.53;5.82;;;;;;;;;;4399805;32;317338;-82
2023/08/03 12:14:37;;;;;;;9.30;6.18;;;;;;;;;;4388228;32;316348;-82
2023/08/03 12:17:12;;;;;;;5.30;4.80;;;;;;;;;;4407369;32;316529;-82
2023/08/03 12:19:39;;;;;;;6.68;6.03;;;;;;;;;;4399801;32;317193;-84
2023/08/03 12:22:06;;;;;;;5.95;5.35;;;;;;;;;;4406217;32;318097;-85
2023/08/03 12:24:33;;;;;;;6.15;5.57;;;;;;;;;;4402992;32;317024;-84
2023/08/03 12:27:00;;;;;;;6.10;4.93;;;;;;;;;;4406477;32;317389;-85
2023/08/03 12:29:27;;;;;;;6.97;4.32;;;;;;;;;;4392489;32;316754;-85
2023/08/03 12:31:54;;;;;;;5.93;4.80;;;;;;;;;;4409678;32;317229;-85
2023/08/03 12:34:22;;;;;;;8.75;4.75;;;;;;;;;;4411148;32;316938;-85
2023/08/03 12:36:48;;;;;;;9.32;4.43;;;;;;;;;;4397328;32;416493;-84
2023/08/03 12:39:17;;;;;;;6.03;4.45;;;;;;;;;;4408162;32;328480;-83
2023/08/03 12:41:44;;;;;;;6.40;4.53;;;;;;;;;;4401961;32;317661;-84
2023/08/03 12:44:11;;;;;;;7.20;5.57;;;;;;;;;;4402967;32;317200;-82
2023/08/03 12:46:38;;;;;;;7.47;4.70;;;;;;;;;;4384951;32;316580;-85
2023/08/03 12:49:05;;;;;;;7.25;4.47;;;;;;;;;;4400894;32;319234;-85
2023/08/03 12:51:35;;;;;;;7.43;3.72;;;;;;;;;;4386969;32;317271;-84
2023/08/03 12:54:05;;;;;;;10.50;4.85;;;;;;;;;;4403735;32;317074;-85
2023/08/03 12:56:36;;;;;;;11.65;4.90;;;;;;;;;;4387551;32;318371;-80
2023/08/03 12:59:03;;;;;;;4.43;4.03;;;;;;;;;;4395160;32;333222;-82
2023/08/03 13:01:30;;;;;;;5.78;4.65;;;;;;;;;;4383892;32;317255;-83
2023/08/03 13:03:57;;;;;;;5.62;4.65;;;;;;;;;;4394350;32;317308;-82
2023/08/03 13:06:24;;;;;;;6.93;4.53;;;;;;;;;;4384461;32;317114;-82
2023/08/03 13:08:53;;;;;;;4.37;3.97;;;;;;;;;;4394830;32;316765;-82
2023/08/03 13:11:20;;;;;;;4.82;4.18;;;;;;;;;;4389188;32;317278;-83
2023/08/03 13:13:47;;;;;;;5.55;3.80;;;;;;;;;;4398857;32;317092;-83
2023/08/03 13:16:14;;;;;;;6.80;4.70;;;;;;;;;;4394434;32;317149;-83
2023/08/03 13:18:41;;;;;;;4.80;3.35;;;;;;;;;;4386322;32;317257;-83
2023/08/03 13:21:11;;;;;;;4.80;4.37;;;;;;;;;;4396628;32;347693;-83
2023/08/03 13:23:38;;;;;;;7.03;4.12;;;;;;;;;;4386670;32;317839;-83
2023/08/03 13:26:06;;;;;;;8.45;4.75;;;;;;;;;;4403791;32;317070;-83
2023/08/03 13:28:33;;;;;;;5.55;4.00;;;;;;;;;;4402651;32;317049;-83
2023/08/03 13:31:03;;;;;;;4.40;3.83;;;;;;;;;;4410145;32;316369;-83
2023/08/03 13:33:30;;;;;;;6.35;4.68;;;;;;;;;;4402747;32;316573;-83
2023/08/03 13:35:57;;;;;;;6.40;4.40;;;;;;;;;;4395826;32;316952;-86
2023/08/03 13:38:25;;;;;;;12.10;4.70;;;;;;;;;;4387308;32;317112;-84
2023/08/03 13:40:51;;;;;;;7.75;4.55;;;;;;;;;;4381572;32;317848;-85
2023/08/03 13:43:20;;;;;;;5.55;4.30;;;;;;;;;;4397296;32;317210;-83
2023/08/03 13:45:46;;;;;;;4.55;4.15;;;;;;;;;;4383858;32;356277;-83
2023/08/03 13:48:13;;;;;;;10.93;5.35;;;;;;;;;;4397706;32;317219;-83
2023/08/03 13:50:40;;;;;;;5.10;4.30;;;;;;;;;;4385982;32;317545;-85
2023/08/03 13:53:11;;;;;;;6.53;4.10;;;;;;;;;;4397650;32;317100;-84
2023/08/03 13:55:38;;;;;;;5.12;4.20;;;;;;;;;;4375207;32;316453;-84
2023/08/03 13:58:05;;;;;;;5.00;4.50;;;;;;;;;;4383545;32;317260;-85
2023/08/03 14:00:33;;;;;;;4.60;4.07;;;;;;;;;;4398048;32;318089;-84
2023/08/03 14:03:03;;;;;;;7.28;5.15;;;;;;;;;;4409197;32;317532;-84
2023/08/03 14:05:29;;;;;;;7.40;4.30;;;;;;;;;;4387267;32;317246;-84
2023/08/03 14:07:56;;;;;;;6.82;3.55;;;;;;;;;;4400020;32;317565;-86
2023/08/03 14:10:25;;;;;;;9.55;3.83;;;;;;;;;;4389468;32;317778;-85
2023/08/03 14:12:52;;;;;;;6.22;3.85;;;;;;;;;;4399702;32;316358;-81
2023/08/03 14:15:19;;;;;;;4.82;3.47;;;;;;;;;;4409103;32;316907;-82
2023/08/03 14:17:47;;;;;;;3.83;3.42;;;;;;;;;;4404181;32;317447;-83
2023/08/03 14:20:14;;;;;;;5.47;3.75;;;;;;;;;;4412557;32;317188;-83
2023/08/03 14:22:40;;;;;;;4.60;4.10;;;;;;;;;;4395971;32;317301;-83
2023/08/03 14:25:15;;;;;;;11.65;5.15;;;;;;;;;;4413463;32;317569;-83
2023/08/03 14:27:42;;;;;;;5.30;4.30;;;;;;;;;;4405364;32;318377;-82
2023/08/03 14:30:10;;;;;;;6.47;4.40;;;;;;;;;;4406925;32;316632;-81